Terminal Aerodrome Forecast
Issued by NWS

Home | Current Version | Previous Version | Text Only | Print | Product List | Glossary On
Versions: 1 2 3 4 5 6 7 8 9 10 11 12 13 14 15 16 17
000
FTUS46 KLOX 292300
TAFLGB
TAF
KLGB 292336Z 3000/3024 30008KT P6SM SCT150 BKN250
     FM300700 16004KT P6SM SCT150 BKN250
     FM301800 19005KT P6SM BKN250
     FM302100 21008KT P6SM SCT250=

USA.gov is the U.S. government's official web portal to all federal, state and local government web resources and services.